createdAt,value
2022-12-01T00:00:47.364Z,100366.47
2022-12-01T00:01:55.144Z,100362.88
2022-12-01T00:03:06.796Z,100362.84
2022-12-01T00:04:22.362Z,100360.22
2022-12-01T00:05:25.912Z,100369.81
2022-12-01T00:06:29.499Z,100361.94
2022-12-01T00:07:33.372Z,100364.44
2022-12-01T00:08:37.294Z,100364.50
2022-12-01T00:09:59.609Z,100360.97
2022-12-01T00:11:12.204Z,100368.88
2022-12-01T00:12:16.859Z,100361.94
2022-12-01T00:13:20.769Z,100366.22
2022-12-01T00:14:24.443Z,100367.06
2022-12-01T00:15:37.041Z,100366.16
2022-12-01T00:16:41.320Z,100368.75
2022-12-01T00:17:47.708Z,100363.50
2022-12-01T00:18:53.084Z,100363.50
2022-12-01T00:19:58.513Z,100360.97
2022-12-01T00:21:05.684Z,100359.13
2022-12-01T00:22:18.416Z,100366.97
2022-12-01T00:23:26.513Z,100359.94
2022-12-01T00:24:36.588Z,100361.78
2022-12-01T00:25:45.384Z,100363.50
2022-12-01T00:26:50.159Z,100369.59
2022-12-01T00:27:57.546Z,100366.13
2022-12-01T00:29:05.092Z,100367.81
2022-12-01T00:30:23.793Z,100362.66
2022-12-01T00:31:29.737Z,100372.19
2022-12-01T00:32:37.919Z,100363.44
2022-12-01T00:33:48.599Z,100363.44
2022-12-01T00:34:56.193Z,100368.69
2022-12-01T00:36:01.255Z,100354.69
2022-12-01T00:37:14.395Z,100367.84
2022-12-01T00:38:19.355Z,100365.19
2022-12-01T00:39:23.800Z,100367.81
2022-12-01T00:40:38.805Z,100367.72
2022-12-01T00:43:27.660Z,100362.44
2022-12-01T00:44:44.049Z,100374.66
2022-12-01T00:45:48.686Z,100370.25
2022-12-01T00:46:54.805Z,100375.53
2022-12-01T00:47:59.250Z,100371.13
2022-12-01T00:49:07.620Z,100370.25
2022-12-01T00:50:19.094Z,100372.81
2022-12-01T00:51:27.544Z,100371.13
2022-12-01T00:52:33.730Z,100376.38
2022-12-01T00:53:44.906Z,100370.25
2022-12-01T00:55:01.668Z,100363.16
2022-12-01T00:56:11.102Z,100365.75
2022-12-01T00:57:25.091Z,100367.50
2022-12-01T00:58:37.493Z,100365.72
2022-12-01T00:59:46.287Z,100363.97
2022-12-01T01:00:57.064Z,100361.28
2022-12-01T01:02:05.825Z,100364.75
2022-12-01T01:03:15.175Z,100371.75
2022-12-01T01:04:23.079Z,100360.47
2022-12-01T01:05:27.103Z,100363.06
2022-12-01T01:06:31.962Z,100365.72
2022-12-01T01:07:39.276Z,100358.75
2022-12-01T01:08:48.626Z,100362.28
2022-12-01T01:09:55.989Z,100358.75
2022-12-01T01:11:05.719Z,100360.53
2022-12-01T01:12:19.365Z,100356.13
2022-12-01T01:13:28.434Z,100350.03
2022-12-01T01:14:41.262Z,100357.03
2022-12-01T01:16:23.137Z,100352.72
2022-12-01T01:17:32.085Z,100350.06
2022-12-01T01:18:40.985Z,100348.38
2022-12-01T01:19:45.946Z,100349.34
2022-12-01T01:21:04.025Z,100353.69
2022-12-01T01:22:16.993Z,100347.78
2022-12-01T01:23:28.276Z,100339.81
2022-12-01T01:24:32.769Z,100345.06
2022-12-01T01:25:43.520Z,100339.91
2022-12-01T01:26:48.343Z,100341.59
2022-12-01T01:27:52.457Z,100347.66
2022-12-01T01:29:04.128Z,100344.16
2022-12-01T01:30:13.701Z,100341.53
2022-12-01T01:31:26.212Z,100339.81
2022-12-01T01:32:31.855Z,100341.56
2022-12-01T01:33:53.672Z,100333.63
2022-12-01T01:34:59.203Z,100335.38
2022-12-01T01:36:10.621Z,100335.34
2022-12-01T01:37:17.550Z,100336.25
2022-12-01T01:38:21.246Z,100335.44
2022-12-01T01:39:34.257Z,100330.19
2022-12-01T01:40:47.552Z,100331.91
2022-12-01T01:41:51.165Z,100334.50
2022-12-01T01:42:56.439Z,100339.72
2022-12-01T01:44:14.323Z,100341.50
2022-12-01T01:45:33.303Z,100336.31
2022-12-01T01:46:37.588Z,100340.69
2022-12-01T01:47:41.768Z,100331.03
2022-12-01T01:49:17.977Z,100338.06
2022-12-01T01:50:29.158Z,100325.78
2022-12-01T01:51:43.567Z,100327.50
2022-12-01T01:52:55.212Z,100330.97
2022-12-01T01:54:08.205Z,100329.19
2022-12-01T01:55:16.078Z,100330.06
2022-12-01T01:56:20.560Z,100332.69
2022-12-01T01:57:36.463Z,100331.78
2022-12-01T01:58:42.372Z,100335.31
2022-12-01T01:59:54.634Z,100331.81
2022-12-01T02:00:58.283Z,100330.06
2022-12-01T02:02:11.543Z,100326.53
2022-12-01T02:03:19.242Z,100326.53
2022-12-01T02:04:25.255Z,100325.66
2022-12-01T02:05:34.029Z,100315.13
2022-12-01T02:06:37.972Z,100319.41
2022-12-01T02:07:42.715Z,100322.94
2022-12-01T02:08:46.233Z,100317.69
2022-12-01T02:09:50.022Z,100320.25
2022-12-01T02:11:33.045Z,100317.63
2022-12-01T02:13:09.896Z,100319.44
2022-12-01T02:15:20.813Z,100320.38
2022-12-01T02:17:00.029Z,100313.28
2022-12-01T02:18:46.399Z,100314.97
2022-12-01T02:20:22.102Z,100319.41
2022-12-01T02:21:51.744Z,100317.59
2022-12-01T02:23:35.836Z,100319.31
2022-12-01T02:25:20.883Z,100324.50
2022-12-01T02:26:49.564Z,100314.03
2022-12-01T02:28:25.768Z,100314.09
2022-12-01T02:30:12.352Z,100321.13
2022-12-01T02:31:49.623Z,100329.91
2022-12-01T02:33:35.665Z,100322.06
2022-12-01T02:35:04.070Z,100325.59
2022-12-01T02:36:55.244Z,100322.06
2022-12-01T02:38:36.546Z,100323.00
2022-12-01T02:40:12.454Z,100319.47
2022-12-01T02:41:38.949Z,100323.00
2022-12-01T02:43:07.967Z,100323.88
2022-12-01T02:44:38.081Z,100320.38
2022-12-01T02:46:12.791Z,100322.03
2022-12-01T02:47:22.189Z,100320.25
2022-12-01T02:48:43.436Z,100319.34
2022-12-01T02:49:52.965Z,100308.91
2022-12-01T02:51:39.950Z,100313.19
2022-12-01T02:52:47.651Z,100313.19
2022-12-01T02:53:59.296Z,100318.41
2022-12-01T02:55:08.933Z,100321.88
2022-12-01T02:56:25.219Z,100319.28
2022-12-01T02:57:33.225Z,100313.97
2022-12-01T02:58:41.004Z,100313.97
2022-12-01T02:59:54.582Z,100316.50
2022-12-01T03:01:21.463Z,100309.50
2022-12-01T03:02:51.784Z,100314.84
2022-12-01T03:04:50.363Z,100310.50
2022-12-01T03:06:26.260Z,100304.34
2022-12-01T03:07:51.564Z,100306.91
2022-12-01T03:09:23.488Z,100304.25
2022-12-01T03:10:40.060Z,100300.69
2022-12-01T03:12:31.627Z,100303.31
2022-12-01T03:13:54.879Z,100298.03
2022-12-01T03:15:58.855Z,100301.56
2022-12-01T03:17:15.318Z,100305.91
2022-12-01T03:18:42.253Z,100301.53
2022-12-01T03:20:30.887Z,100308.50
2022-12-01T03:21:52.502Z,100304.97
2022-12-01T03:23:29.281Z,100303.22
2022-12-01T03:24:39.281Z,100298.03
2022-12-01T03:25:57.306Z,100305.09
2022-12-01T03:27:11.387Z,100306.78
2022-12-01T03:28:31.567Z,100300.53
2022-12-01T03:29:52.472Z,100299.69
2022-12-01T03:31:17.519Z,100295.28
2022-12-01T03:32:34.363Z,100302.25
2022-12-01T03:34:04.792Z,100299.59
2022-12-01T03:35:38.989Z,100303.94
2022-12-01T03:36:54.134Z,100302.13
2022-12-01T03:38:18.532Z,100292.47
2022-12-01T03:39:36.358Z,100297.66
2022-12-01T03:40:48.870Z,100291.63
2022-12-01T03:42:20.029Z,100284.63
2022-12-01T03:43:39.475Z,100289.81
2022-12-01T03:44:58.996Z,100284.47
2022-12-01T03:48:04.475Z,100279.25
2022-12-01T03:49:28.323Z,100283.75
2022-12-01T03:51:24.544Z,100278.44
2022-12-01T03:53:04.539Z,100276.75
2022-12-01T03:54:46.248Z,100274.06
2022-12-01T03:56:02.981Z,100270.47
2022-12-01T03:57:20.509Z,100280.16
2022-12-01T03:58:40.764Z,100275.72
2022-12-01T03:59:51.380Z,100273.06
2022-12-01T04:00:59.575Z,100273.06
2022-12-01T04:03:32.807Z,100273.06
2022-12-01T04:04:39.047Z,100274.00
2022-12-01T04:05:46.346Z,100268.84
2022-12-01T04:06:51.304Z,100270.44
2022-12-01T04:07:55.071Z,100273.00
2022-12-01T04:08:58.684Z,100266.03
2022-12-01T04:10:02.426Z,100271.34
2022-12-01T04:11:32.144Z,100269.66
2022-12-01T04:12:36.345Z,100268.09
2022-12-01T04:13:39.920Z,100273.25
2022-12-01T04:14:43.407Z,100268.19
2022-12-01T04:15:47.082Z,100262.78
2022-12-01T04:16:53.814Z,100268.00
2022-12-01T04:17:57.339Z,100264.56
2022-12-01T04:19:09.380Z,100268.09
2022-12-01T04:20:28.356Z,100268.00
2022-12-01T04:21:36.503Z,100264.47
2022-12-01T04:22:43.217Z,100267.09
2022-12-01T04:24:01.373Z,100265.28
2022-12-01T04:25:17.276Z,100262.75
2022-12-01T04:26:42.624Z,100262.69
2022-12-01T04:27:52.440Z,100266.28
2022-12-01T04:28:58.234Z,100270.63
2022-12-01T04:30:06.310Z,100265.41
2022-12-01T04:31:26.760Z,100267.94
2022-12-01T04:32:31.667Z,100271.53
2022-12-01T04:33:36.707Z,100267.09
2022-12-01T04:34:42.215Z,100264.41
2022-12-01T04:36:01.348Z,100266.13
2022-12-01T04:37:16.570Z,100266.06
2022-12-01T04:38:33.182Z,100272.09
2022-12-01T04:39:43.134Z,100273.91
2022-12-01T04:40:49.508Z,100274.91
2022-12-01T04:41:54.140Z,100272.19
2022-12-01T04:43:07.411Z,100271.19
2022-12-01T04:44:14.105Z,100268.63
2022-12-01T04:45:29.430Z,100267.72
2022-12-01T04:46:34.920Z,100275.59
2022-12-01T04:47:39.920Z,100276.34
2022-12-01T04:48:45.049Z,100277.25
2022-12-01T04:49:52.835Z,100279.84
2022-12-01T04:50:57.970Z,100278.13
2022-12-01T04:52:02.677Z,100281.66
2022-12-01T04:53:29.173Z,100274.78
2022-12-01T04:54:36.879Z,100277.31
2022-12-01T04:55:42.628Z,100275.53
2022-12-01T04:56:46.354Z,100274.81
2022-12-01T04:57:51.000Z,100275.69
2022-12-01T04:58:55.298Z,100268.72
2022-12-01T05:00:13.183Z,100274.78
2022-12-01T05:01:18.949Z,100270.44
2022-12-01T05:02:23.436Z,100270.53
2022-12-01T05:03:36.883Z,100260.97
2022-12-01T05:04:42.001Z,100270.56
2022-12-01T05:05:50.719Z,100276.72
2022-12-01T05:07:00.137Z,100274.97
2022-12-01T05:08:10.509Z,100273.25
2022-12-01T05:09:20.052Z,100280.31
2022-12-01T05:10:26.206Z,100278.44
2022-12-01T05:11:38.243Z,100282.84
2022-12-01T05:12:47.079Z,100266.22
2022-12-01T05:13:56.231Z,100273.25
2022-12-01T05:15:04.736Z,100269.72
2022-12-01T05:16:21.478Z,100274.13
2022-12-01T05:17:36.825Z,100277.59
2022-12-01T05:18:43.058Z,100279.41
2022-12-01T05:20:13.641Z,100274.00
2022-12-01T05:21:19.202Z,100276.63
2022-12-01T05:22:49.428Z,100273.09
2022-12-01T05:23:55.436Z,100282.72
2022-12-01T05:25:01.250Z,100274.81
2022-12-01T05:26:11.081Z,100281.88
2022-12-01T05:27:16.828Z,100286.28
2022-12-01T05:28:27.301Z,100281.81
2022-12-01T05:29:33.455Z,100283.66
2022-12-01T05:30:43.814Z,100285.34
2022-12-01T05:31:48.580Z,100284.44
2022-12-01T05:32:52.686Z,100289.69
2022-12-01T05:34:00.616Z,100284.47
2022-12-01T05:35:10.997Z,100284.47
2022-12-01T05:36:22.073Z,100284.59
2022-12-01T05:37:26.948Z,100297.72
2022-12-01T05:38:34.441Z,100284.59
2022-12-01T05:39:39.051Z,100290.59
2022-12-01T05:40:49.611Z,100295.78
2022-12-01T05:41:54.500Z,100289.69
2022-12-01T05:43:04.534Z,100287.91
2022-12-01T05:44:12.841Z,100288.72
2022-12-01T05:45:27.437Z,100284.50
2022-12-01T05:46:32.981Z,100292.38
2022-12-01T05:47:40.915Z,100290.81
2022-12-01T05:48:48.594Z,100290.81
2022-12-01T05:49:58.486Z,100291.63
2022-12-01T05:52:42.308Z,100292.47
2022-12-01T05:53:48.051Z,100297.66
2022-12-01T05:54:53.756Z,100303.84
2022-12-01T05:56:02.199Z,100302.94
2022-12-01T05:57:16.077Z,100296.88
2022-12-01T05:58:25.445Z,100305.75
2022-12-01T05:59:31.282Z,100308.25
2022-12-01T06:00:40.890Z,100303.13
2022-12-01T06:01:55.503Z,100297.78
2022-12-01T06:02:59.448Z,100298.81
2022-12-01T06:04:03.153Z,100304.06
2022-12-01T06:05:10.952Z,100301.53
2022-12-01T06:06:18.732Z,100306.00
2022-12-01T06:07:24.216Z,100306.91
2022-12-01T06:08:29.139Z,100309.44
2022-12-01T06:09:33.269Z,100312.88
2022-12-01T06:10:37.017Z,100311.94
2022-12-01T06:11:40.539Z,100306.69
2022-12-01T06:12:44.159Z,100307.50
2022-12-01T06:15:18.786Z,100318.19
2022-12-01T06:16:24.546Z,100317.34
2022-12-01T06:17:29.949Z,100309.44
2022-12-01T06:18:45.901Z,100313.66
2022-12-01T06:19:53.445Z,100311.16
2022-12-01T06:20:58.574Z,100318.34
2022-12-01T06:22:13.444Z,100318.41
2022-12-01T06:23:24.303Z,100320.03
2022-12-01T06:24:35.477Z,100324.31
2022-12-01T06:25:52.222Z,100324.31
2022-12-01T06:26:58.852Z,100307.72
2022-12-01T06:28:10.941Z,100319.09
2022-12-01T06:29:30.600Z,100313.88
2022-12-01T06:30:39.101Z,100314.81
2022-12-01T06:31:48.522Z,100322.72
2022-12-01T06:32:55.821Z,100318.38
2022-12-01T06:34:01.584Z,100318.31
2022-12-01T06:35:08.111Z,100321.75
2022-12-01T06:36:20.163Z,100312.06
2022-12-01T06:37:30.448Z,100320.72
2022-12-01T06:38:42.916Z,100317.16
2022-12-01T06:39:53.493Z,100323.22
2022-12-01T06:40:59.413Z,100317.16
2022-12-01T06:42:22.449Z,100321.53
2022-12-01T06:43:31.324Z,100325.84
2022-12-01T06:44:39.104Z,100319.59
2022-12-01T06:45:48.554Z,100317.16
2022-12-01T06:46:53.572Z,100319.72
2022-12-01T06:48:00.089Z,100322.41
2022-12-01T06:50:27.390Z,100314.53
2022-12-01T06:51:56.887Z,100321.63
2022-12-01T06:53:03.049Z,100318.19
2022-12-01T06:54:16.870Z,100316.41
2022-12-01T06:55:24.942Z,100319.22
2022-12-01T06:56:36.614Z,100313.13
2022-12-01T06:57:41.484Z,100315.81
2022-12-01T06:58:52.102Z,100315.69
2022-12-01T06:59:56.940Z,100314.88
2022-12-01T07:01:14.187Z,100326.25
2022-12-01T07:02:21.605Z,100321.06
2022-12-01T07:03:29.157Z,100320.94
2022-12-01T07:04:44.587Z,100320.91
2022-12-01T07:06:01.486Z,100320.84
2022-12-01T07:07:15.623Z,100314.75
2022-12-01T07:08:26.772Z,100320.00
2022-12-01T07:09:42.375Z,100319.34
2022-12-01T07:11:02.996Z,100321.13
2022-12-01T07:12:18.091Z,100327.13
2022-12-01T07:13:31.500Z,100321.84
2022-12-01T07:14:43.201Z,100325.34
2022-12-01T07:15:50.495Z,100320.03
2022-12-01T07:16:56.440Z,100319.06
2022-12-01T07:18:15.486Z,100315.56
2022-12-01T07:19:21.133Z,100321.81
2022-12-01T07:20:26.501Z,100319.06
2022-12-01T07:21:33.439Z,100319.00
2022-12-01T07:22:40.258Z,100319.88
2022-12-01T07:23:48.156Z,100312.94
2022-12-01T07:24:53.468Z,100317.38
2022-12-01T07:26:19.123Z,100320.00
2022-12-01T07:27:39.822Z,100320.06
2022-12-01T07:28:46.783Z,100323.63
2022-12-01T07:30:02.945Z,100315.75
2022-12-01T07:31:20.825Z,100325.31
2022-12-01T07:32:25.727Z,100309.59
2022-12-01T07:33:35.854Z,100312.97
2022-12-01T07:34:47.023Z,100315.59
2022-12-01T07:35:54.331Z,100324.38
2022-12-01T07:37:06.656Z,100326.88
2022-12-01T07:38:21.923Z,100315.56
2022-12-01T07:39:35.542Z,100315.38
2022-12-01T07:40:45.655Z,100317.06
2022-12-01T07:41:55.052Z,100319.59
2022-12-01T07:43:02.523Z,100315.16
2022-12-01T07:44:10.648Z,100316.78
2022-12-01T07:45:29.262Z,100312.44
2022-12-01T07:46:39.067Z,100317.75
2022-12-01T07:47:52.361Z,100317.81
2022-12-01T07:49:15.891Z,100323.13
2022-12-01T07:50:25.923Z,100319.59
2022-12-01T07:51:36.531Z,100318.69
2022-12-01T07:52:52.184Z,100318.56
2022-12-01T07:54:22.763Z,100328.19
2022-12-01T07:55:37.672Z,100314.25
2022-12-01T07:56:44.030Z,100313.41
2022-12-01T07:57:52.486Z,100316.88
2022-12-01T07:58:58.648Z,100316.03
2022-12-01T08:00:06.687Z,100317.69
2022-12-01T08:01:25.236Z,100318.59
2022-12-01T08:02:34.180Z,100318.56
2022-12-01T08:03:43.148Z,100318.72
2022-12-01T08:04:49.608Z,100311.66
2022-12-01T08:06:03.150Z,100315.06
2022-12-01T08:07:10.421Z,100312.44
2022-12-01T08:08:14.153Z,100318.56
2022-12-01T08:09:17.745Z,100320.28
2022-12-01T08:10:21.401Z,100320.19
2022-12-01T08:11:30.035Z,100318.41
2022-12-01T08:12:33.893Z,100319.28
2022-12-01T08:13:37.761Z,100315.78
2022-12-01T08:14:41.280Z,100323.69
2022-12-01T08:15:45.936Z,100321.84
2022-12-01T08:16:49.994Z,100326.25
2022-12-01T08:17:53.489Z,100321.78
2022-12-01T08:18:58.734Z,100325.25
2022-12-01T08:20:04.515Z,100320.75
2022-12-01T08:21:21.182Z,100328.66
2022-12-01T08:22:36.771Z,100319.94
2022-12-01T08:23:46.803Z,100330.47
2022-12-01T08:24:54.641Z,100323.47
2022-12-01T08:26:15.471Z,100325.31
2022-12-01T08:27:21.499Z,100330.56
2022-12-01T08:28:28.164Z,100332.34
2022-12-01T08:29:40.321Z,100330.72
2022-12-01T08:30:51.873Z,100342.19
2022-12-01T08:32:03.742Z,100335.16
2022-12-01T08:33:10.343Z,100333.44
2022-12-01T08:34:15.664Z,100334.13
2022-12-01T08:35:22.166Z,100332.31
2022-12-01T08:36:35.288Z,100333.19
2022-12-01T08:37:45.111Z,100338.56
2022-12-01T08:38:55.567Z,100337.56
2022-12-01T08:40:11.125Z,100334.03
2022-12-01T08:41:22.202Z,100336.75
2022-12-01T08:42:32.180Z,100332.31
2022-12-01T08:43:57.294Z,100332.22
2022-12-01T08:45:11.075Z,100337.53
2022-12-01T08:46:17.521Z,100343.63
2022-12-01T08:47:32.356Z,100339.38
2022-12-01T08:48:41.679Z,100344.50
2022-12-01T08:49:50.659Z,100339.22
2022-12-01T08:51:26.629Z,100346.97
2022-12-01T08:52:37.037Z,100344.31
2022-12-01T08:53:50.974Z,100349.56
2022-12-01T08:54:55.854Z,100351.31
2022-12-01T08:56:08.720Z,100342.53
2022-12-01T08:57:16.655Z,100348.59
2022-12-01T08:58:22.074Z,100346.03
2022-12-01T08:59:32.360Z,100351.31
2022-12-01T09:00:55.746Z,100353.03
2022-12-01T09:02:11.414Z,100347.78
2022-12-01T09:03:19.614Z,100345.25
2022-12-01T09:04:28.546Z,100344.25
2022-12-01T09:05:36.770Z,100344.19
2022-12-01T09:06:45.312Z,100338.78
2022-12-01T09:08:13.252Z,100342.22
2022-12-01T09:09:26.902Z,100336.19
2022-12-01T09:10:40.037Z,100339.00
2022-12-01T09:11:45.817Z,100336.38
2022-12-01T09:12:52.567Z,100344.19
2022-12-01T09:13:56.317Z,100344.19
2022-12-01T09:15:06.734Z,100347.78
2022-12-01T09:16:21.579Z,100331.09
2022-12-01T09:17:30.996Z,100332.19
2022-12-01T09:18:35.706Z,100339.28
2022-12-01T09:19:49.513Z,100330.59
2022-12-01T09:22:16.630Z,100334.25
2022-12-01T09:23:23.888Z,100333.22
2022-12-01T09:24:28.303Z,100329.72
2022-12-01T09:25:35.196Z,100328.72
2022-12-01T09:26:38.767Z,100330.50
2022-12-01T09:27:42.397Z,100325.25
2022-12-01T09:28:50.782Z,100326.06
2022-12-01T09:29:58.884Z,100333.03
2022-12-01T09:31:15.102Z,100320.72
2022-12-01T09:32:29.284Z,100334.72
2022-12-01T09:33:34.322Z,100322.34
2022-12-01T09:34:40.415Z,100327.69
2022-12-01T09:35:47.655Z,100328.56
2022-12-01T09:36:57.380Z,100326.69
2022-12-01T09:38:12.087Z,100329.28
2022-12-01T09:39:23.617Z,100323.28
2022-12-01T09:40:44.017Z,100326.78
2022-12-01T09:42:25.309Z,100332.22
2022-12-01T09:43:40.354Z,100326.97
2022-12-01T09:44:51.777Z,100334.13
2022-12-01T09:46:13.712Z,100322.66
2022-12-01T09:47:37.907Z,100323.63
2022-12-01T09:48:46.929Z,100320.16
2022-12-01T09:49:58.845Z,100321.94
2022-12-01T09:51:09.709Z,100317.56
2022-12-01T09:52:19.887Z,100320.38
2022-12-01T09:53:29.026Z,100319.47
2022-12-01T09:54:33.358Z,100325.56
2022-12-01T09:55:51.886Z,100314.41
2022-12-01T09:56:57.406Z,100315.28
2022-12-01T09:58:04.849Z,100313.56
2022-12-01T09:59:28.426Z,100312.56
2022-12-01T10:00:42.456Z,100314.34
2022-12-01T10:01:56.255Z,100309.00
2022-12-01T10:03:35.429Z,100307.19
2022-12-01T10:04:46.872Z,100309.88
2022-12-01T10:07:46.510Z,100309.81
2022-12-01T10:09:18.611Z,100304.56
2022-12-01T10:10:36.514Z,100314.03
2022-12-01T10:11:46.098Z,100309.81
2022-12-01T10:12:50.610Z,100307.19
2022-12-01T10:13:55.112Z,100314.16
2022-12-01T10:15:59.166Z,100309.03
2022-12-01T10:17:33.839Z,100313.47
2022-12-01T10:19:02.849Z,100310.03
2022-12-01T10:20:30.049Z,100306.66
2022-12-01T10:22:04.463Z,100314.56
2022-12-01T10:23:53.130Z,100311.91
2022-12-01T10:25:18.848Z,100317.16
2022-12-01T10:26:38.390Z,100303.22
2022-12-01T10:28:11.060Z,100311.00
2022-12-01T10:29:51.262Z,100315.38
2022-12-01T10:31:15.715Z,100312.75
2022-12-01T10:32:52.253Z,100314.53
2022-12-01T10:34:11.901Z,100303.25
2022-12-01T10:35:19.622Z,100306.75
2022-12-01T10:36:35.177Z,100300.53
2022-12-01T10:37:40.400Z,100303.16
2022-12-01T10:38:43.945Z,100307.50
2022-12-01T10:40:04.012Z,100300.38
2022-12-01T10:41:15.370Z,100303.84
2022-12-01T10:42:41.391Z,100310.91
2022-12-01T10:43:54.212Z,100294.25
2022-12-01T10:45:03.428Z,100295.19
2022-12-01T10:46:38.225Z,100291.66
2022-12-01T10:48:22.855Z,100294.44
2022-12-01T10:49:40.031Z,100290.84
2022-12-01T10:50:51.612Z,100289.91
2022-12-01T10:51:58.350Z,100292.63
2022-12-01T10:53:03.558Z,100296.09
2022-12-01T10:54:12.053Z,100280.31
2022-12-01T10:55:43.441Z,100282.84
2022-12-01T10:56:57.032Z,100284.00
2022-12-01T10:58:13.214Z,100279.59
2022-12-01T10:59:34.724Z,100282.13
2022-12-01T11:00:59.096Z,100284.69
2022-12-01T11:02:14.657Z,100284.78
2022-12-01T11:03:23.276Z,100287.41
2022-12-01T11:04:54.958Z,100283.03
2022-12-01T11:06:04.932Z,100287.50
2022-12-01T11:07:24.469Z,100272.69
2022-12-01T11:08:37.549Z,100276.00
2022-12-01T11:09:41.442Z,100284.78
2022-12-01T11:10:50.398Z,100271.66
2022-12-01T11:13:41.016Z,100277.94
2022-12-01T11:14:54.191Z,100277.09
2022-12-01T11:16:03.120Z,100268.44
2022-12-01T11:17:39.644Z,100272.84
2022-12-01T11:18:43.388Z,100270.25
2022-12-01T11:19:48.127Z,100271.13
2022-12-01T11:21:15.840Z,100270.41
2022-12-01T11:22:31.387Z,100272.25
2022-12-01T11:23:50.314Z,100264.28
2022-12-01T11:25:08.136Z,100261.66
2022-12-01T11:26:31.398Z,100272.97
2022-12-01T11:27:50.585Z,100266.06
2022-12-01T11:29:30.876Z,100265.91
2022-12-01T11:30:37.524Z,100273.09
2022-12-01T11:31:51.891Z,100265.19
2022-12-01T11:33:02.831Z,100266.06
2022-12-01T11:34:26.573Z,100272.16
2022-12-01T11:35:35.656Z,100280.03
2022-12-01T11:36:51.846Z,100265.16
2022-12-01T11:38:28.724Z,100274.78
2022-12-01T11:39:41.469Z,100268.66
2022-12-01T11:40:58.015Z,100267.81
2022-12-01T11:42:13.647Z,100264.34
2022-12-01T11:43:36.398Z,100276.53
2022-12-01T11:44:57.430Z,100266.78
2022-12-01T11:46:13.081Z,100266.03
2022-12-01T11:47:24.801Z,100268.66
2022-12-01T11:48:34.623Z,100272.97
2022-12-01T11:49:47.075Z,100269.31
2022-12-01T11:51:14.425Z,100266.66
2022-12-01T11:52:45.193Z,100274.59
2022-12-01T11:53:49.244Z,100269.38
2022-12-01T11:55:15.387Z,100265.81
2022-12-01T11:56:31.517Z,100268.50
2022-12-01T11:57:35.514Z,100266.72
2022-12-01T11:58:40.059Z,100264.06
2022-12-01T11:59:50.513Z,100267.59
2022-12-01T12:00:58.443Z,100263.97
2022-12-01T12:02:29.147Z,100264.75
2022-12-01T12:04:26.638Z,100272.69
2022-12-01T12:05:49.443Z,100259.59
2022-12-01T12:07:37.455Z,100262.25
2022-12-01T12:09:27.720Z,100265.75
2022-12-01T12:11:15.258Z,100264.13
2022-12-01T12:12:41.485Z,100261.66
2022-12-01T12:14:13.752Z,100268.66
2022-12-01T12:15:41.989Z,100262.53
2022-12-01T12:17:04.129Z,100254.66
2022-12-01T12:18:44.082Z,100270.38
2022-12-01T12:20:28.374Z,100269.41
2022-12-01T12:21:54.325Z,100266.72
2022-12-01T12:23:32.936Z,100265.91
2022-12-01T12:25:19.412Z,100269.44
2022-12-01T12:27:16.283Z,100266.78
2022-12-01T12:29:01.626Z,100270.38
2022-12-01T12:30:32.294Z,100269.41
2022-12-01T12:32:03.676Z,100272.00
2022-12-01T12:33:25.883Z,100267.63
2022-12-01T12:34:48.602Z,100272.97
2022-12-01T12:36:21.121Z,100262.38
2022-12-01T12:38:05.842Z,100269.63
2022-12-01T12:40:10.389Z,100271.44
2022-12-01T12:41:44.022Z,100268.75
2022-12-01T12:43:30.976Z,100260.84
2022-12-01T12:44:59.665Z,100267.81
2022-12-01T12:46:42.417Z,100259.91
2022-12-01T12:47:48.431Z,100263.56
2022-12-01T12:49:21.255Z,100266.19
2022-12-01T12:51:31.548Z,100268.69
2022-12-01T12:52:45.610Z,100266.88
2022-12-01T12:54:05.714Z,100265.19
2022-12-01T12:55:49.948Z,100272.03
2022-12-01T12:57:03.867Z,100272.13
2022-12-01T12:58:23.386Z,100266.72
2022-12-01T12:59:48.782Z,100267.50
2022-12-01T13:01:32.704Z,100260.63
2022-12-01T13:02:54.691Z,100267.63
2022-12-01T13:04:16.749Z,100269.38
2022-12-01T13:05:37.318Z,100267.59
2022-12-01T13:07:11.582Z,100274.47
2022-12-01T13:08:48.473Z,100270.22
2022-12-01T13:10:02.344Z,100270.13
2022-12-01T13:11:20.728Z,100281.44
2022-12-01T13:12:38.136Z,100268.31
2022-12-01T13:14:18.209Z,100263.06
2022-12-01T13:15:22.504Z,100269.22
2022-12-01T13:16:42.602Z,100265.75
2022-12-01T13:18:16.381Z,100271.75
2022-12-01T13:19:39.334Z,100266.50
2022-12-01T13:20:44.529Z,100263.94
2022-12-01T13:21:52.996Z,100268.13
2022-12-01T13:23:01.478Z,100263.78
2022-12-01T13:24:07.827Z,100276.00
2022-12-01T13:25:22.267Z,100262.03
2022-12-01T13:26:26.126Z,100271.75
2022-12-01T13:27:38.556Z,100261.25
2022-12-01T13:28:52.264Z,100261.22
2022-12-01T13:29:58.193Z,100263.78
2022-12-01T13:31:18.054Z,100256.78
2022-12-01T13:32:33.163Z,100252.56
2022-12-01T13:33:45.334Z,100259.53
2022-12-01T13:34:49.677Z,100268.13
2022-12-01T13:36:29.984Z,100269.91
2022-12-01T13:37:38.843Z,100276.78
2022-12-01T13:38:43.311Z,100272.44
2022-12-01T13:39:47.255Z,100272.34
2022-12-01T13:41:20.083Z,100273.09
2022-12-01T13:42:27.220Z,100269.53
2022-12-01T13:43:32.713Z,100275.63
2022-12-01T13:44:59.240Z,100268.81
2022-12-01T13:46:04.310Z,100278.34
2022-12-01T13:47:11.310Z,100271.53
2022-12-01T13:48:48.855Z,100271.53
2022-12-01T13:49:53.561Z,100269.66
2022-12-01T13:51:05.339Z,100274.81
2022-12-01T13:52:26.188Z,100278.31
2022-12-01T13:53:38.243Z,100272.16
2022-12-01T13:55:14.024Z,100268.72
2022-12-01T13:56:17.569Z,100276.63
2022-12-01T13:57:31.344Z,100274.16
2022-12-01T13:58:34.775Z,100265.38
2022-12-01T13:59:58.593Z,100268.84
2022-12-01T14:01:41.992Z,100273.19
2022-12-01T14:02:45.985Z,100273.16
2022-12-01T14:04:06.779Z,100271.25
2022-12-01T14:05:25.019Z,100268.47
2022-12-01T14:06:31.740Z,100278.88
2022-12-01T14:07:40.233Z,100274.44
2022-12-01T14:08:50.439Z,100274.44
2022-12-01T14:10:11.416Z,100271.81
2022-12-01T14:11:25.564Z,100272.59
2022-12-01T14:12:37.863Z,100272.53
2022-12-01T14:13:53.779Z,100282.22
2022-12-01T14:15:03.068Z,100274.44
2022-12-01T14:16:10.010Z,100271.13
2022-12-01T14:17:34.202Z,100266.84
2022-12-01T14:18:58.996Z,100264.41
2022-12-01T14:20:26.025Z,100264.41
2022-12-01T14:21:49.798Z,100269.66
2022-12-01T14:23:34.919Z,100269.00
2022-12-01T14:24:51.664Z,100269.75
2022-12-01T14:26:23.437Z,100276.16
2022-12-01T14:27:56.809Z,100271.66
2022-12-01T14:29:01.013Z,100271.78
2022-12-01T14:30:46.014Z,100270.06
2022-12-01T14:31:54.091Z,100271.03
2022-12-01T14:33:40.911Z,100269.38
2022-12-01T14:34:45.217Z,100272.13